Time;durP1;ratioP1;P1;durP2;ratioP2;P2;SDS_P1;SDS_P2;PMS_P1;PMS_P2;Temp;Humidity;BMP_temperature;BMP_pressure;BME280_temperature;BME280_humidity;BME280_pressure;Samples;Min_cycle;Max_cycle;Signal;HPM_P1;HPM_P2
2022/05/03 00:00:12;;;;;;;11.63;10.83;;;14.40;79.60;;;;;;5059440;28;20188;-81
2022/05/03 00:03:13;;;;;;;11.17;10.30;;;14.40;79.00;;;;;;5077209;28;20193;-80
2022/05/03 00:06:06;;;;;;;11.03;10.13;;;14.30;79.40;;;;;;5086387;28;20188;-81
2022/05/03 00:08:53;;;;;;;11.87;10.87;;;14.30;79.50;;;;;;5090231;28;20233;-81
2022/05/03 00:11:45;;;;;;;11.30;10.40;;;14.30;80.00;;;;;;5094881;28;20940;-81
2022/05/03 00:14:29;;;;;;;11.53;10.63;;;14.40;78.50;;;;;;5083920;28;20184;-81
2022/05/03 00:16:56;;;;;;;10.93;10.13;;;14.50;78.20;;;;;;5097032;28;20291;-81
2022/05/03 00:19:23;;;;;;;11.53;10.37;;;14.40;79.20;;;;;;5069009;28;20183;-81
2022/05/03 00:21:49;;;;;;;11.47;10.57;;;14.40;78.60;;;;;;5096394;28;20205;-81
2022/05/03 00:24:16;;;;;;;10.60;9.70;;;14.40;78.70;;;;;;5114599;28;20233;-81
2022/05/03 00:26:43;;;;;;;10.27;9.47;;;14.40;78.20;;;;;;5098891;28;20204;-81
2022/05/03 00:29:10;;;;;;;10.60;9.70;;;14.40;78.50;;;;;;5096732;28;20186;-81
2022/05/03 00:31:36;;;;;;;10.73;9.93;;;14.40;78.10;;;;;;5096730;28;20183;-80
2022/05/03 00:34:04;;;;;;;10.90;10.07;;;14.40;77.60;;;;;;5095522;28;20674;-81
2022/05/03 00:36:31;;;;;;;10.40;9.47;;;14.30;78.00;;;;;;5087117;28;20305;-81
2022/05/03 00:38:57;;;;;;;10.17;8.87;;;14.30;78.00;;;;;;5097498;28;20232;-81
2022/05/03 00:41:45;;;;;;;10.17;9.43;;;14.20;78.50;;;;;;5087193;28;20239;-81
2022/05/03 00:47:18;;;;;;;10.40;9.70;;;14.20;78.00;;;;;;5098764;28;20243;-81
2022/05/03 00:49:49;;;;;;;10.40;9.60;;;14.00;79.50;;;;;;5090480;28;20182;-81
2022/05/03 00:52:42;;;;;;;10.60;9.77;;;14.10;79.30;;;;;;5091166;28;20684;-80
2022/05/03 00:55:28;;;;;;;10.27;9.53;;;14.10;78.70;;;;;;5091433;28;20249;-80
2022/05/03 00:58:15;;;;;;;11.43;10.53;;;14.10;78.00;;;;;;5097380;28;20224;-80
2022/05/03 01:00:53;;;;;;;10.07;9.37;;;14.00;78.40;;;;;;5099089;28;20766;-80
2022/05/03 01:03:45;;;;;;;11.30;10.27;;;13.90;78.70;;;;;;5096245;28;20175;-81
2022/05/03 01:06:37;;;;;;;10.50;9.70;;;13.80;79.60;;;;;;5057765;28;20276;-81
2022/05/03 01:09:07;;;;;;;10.90;10.10;;;13.90;79.10;;;;;;5063866;28;20197;-81
2022/05/03 01:12:16;;;;;;;10.27;9.47;;;13.90;78.80;;;;;;5090926;28;20248;-81
2022/05/03 01:15:06;;;;;;;10.27;9.47;;;13.90;78.60;;;;;;5098328;28;20228;-80
2022/05/03 01:18:04;;;;;;;10.10;9.30;;;13.80;78.00;;;;;;5098016;28;20209;-81
2022/05/03 01:20:35;;;;;;;9.20;8.50;;;13.90;77.70;;;;;;5099438;28;20196;-81
2022/05/03 01:23:29;;;;;;;10.83;9.23;;;13.80;78.10;;;;;;5103876;28;20180;-81
2022/05/03 01:26:23;;;;;;;9.67;8.97;;;13.80;79.00;;;;;;5097811;28;20186;-81
2022/05/03 01:29:06;;;;;;;10.60;9.57;;;13.80;77.80;;;;;;5094120;28;20187;-81
2022/05/03 01:31:34;;;;;;;9.73;8.93;;;13.70;77.80;;;;;;5093302;28;20187;-80
2022/05/03 01:34:03;;;;;;;10.37;9.37;;;13.70;78.00;;;;;;5096345;28;20189;-81
2022/05/03 01:37:01;;;;;;;9.40;8.50;;;13.70;78.20;;;;;;5097945;28;20210;-81
2022/05/03 01:39:46;;;;;;;9.73;9.00;;;13.70;78.50;;;;;;5080697;28;20194;-81
2022/05/03 01:42:43;;;;;;;10.17;9.40;;;13.50;78.40;;;;;;5106473;28;20204;-81
2022/05/03 01:45:11;;;;;;;9.73;8.93;;;13.40;80.00;;;;;;5097363;28;20225;-81
2022/05/03 01:47:55;;;;;;;10.13;9.33;;;13.20;81.30;;;;;;5105518;28;20669;-81
2022/05/03 01:51:00;;;;;;;9.43;8.73;;;13.20;80.40;;;;;;5094888;28;20199;-81
2022/05/03 01:53:42;;;;;;;9.33;8.63;;;13.30;80.00;;;;;;5094625;28;20182;-81
2022/05/03 01:56:43;;;;;;;9.47;8.77;;;13.30;79.50;;;;;;5095442;28;20203;-81
2022/05/03 01:59:31;;;;;;;9.20;8.40;;;13.40;79.40;;;;;;5097096;28;20208;-81
2022/05/03 02:02:08;;;;;;;9.70;8.90;;;13.40;79.30;;;;;;5092559;28;20178;-81
2022/05/03 02:05:00;;;;;;;9.30;8.53;;;13.30;79.20;;;;;;5079002;28;20180;-81
2022/05/03 02:07:40;;;;;;;9.27;8.53;;;13.30;78.10;;;;;;5104282;28;20370;-81
2022/05/03 02:10:41;;;;;;;9.23;8.40;;;13.20;77.90;;;;;;5102273;28;20274;-81
2022/05/03 02:13:30;;;;;;;9.47;8.53;;;13.20;78.80;;;;;;5073257;28;20212;-80
2022/05/03 02:16:08;;;;;;;9.03;8.23;;;13.20;79.30;;;;;;5120355;28;20273;-80
2022/05/03 02:18:56;;;;;;;10.17;9.23;;;13.20;79.20;;;;;;5094067;28;20218;-80
2022/05/03 02:21:25;;;;;;;9.23;8.53;;;13.20;79.10;;;;;;5100818;28;20754;-80
2022/05/03 02:24:12;;;;;;;10.37;9.43;;;13.20;78.90;;;;;;5099050;28;20893;-81
2022/05/03 02:26:40;;;;;;;9.27;8.50;;;13.10;78.90;;;;;;5091034;28;20205;-81
2022/05/03 02:29:32;;;;;;;9.67;8.87;;;13.10;79.50;;;;;;5098762;28;20193;-81
2022/05/03 02:32:26;;;;;;;9.33;8.53;;;13.10;79.10;;;;;;5088656;28;20421;-81
2022/05/03 02:35:19;;;;;;;9.87;9.07;;;13.10;79.50;;;;;;5098474;28;20290;-80
2022/05/03 02:37:55;;;;;;;9.30;8.53;;;13.20;79.50;;;;;;5098411;28;20265;-81
2022/05/03 02:40:26;;;;;;;10.47;9.67;;;13.20;80.20;;;;;;5093187;28;20271;-82
2022/05/03 02:42:52;;;;;;;9.07;8.37;;;13.10;80.00;;;;;;5090724;28;20211;-81
2022/05/03 02:45:18;;;;;;;8.63;8.00;;;13.20;79.60;;;;;;5093052;28;20175;-81
2022/05/03 02:48:08;;;;;;;8.73;8.07;;;13.20;78.90;;;;;;5080554;28;20212;-81
2022/05/03 02:50:53;;;;;;;9.00;8.30;;;13.30;78.80;;;;;;5097080;28;20176;-81
2022/05/03 02:53:46;;;;;;;9.40;8.67;;;13.20;78.10;;;;;;5101466;28;20242;-80
2022/05/03 02:56:23;;;;;;;9.23;8.43;;;13.10;78.00;;;;;;5092421;28;20265;-81
2022/05/03 02:58:48;;;;;;;8.77;8.07;;;13.00;79.50;;;;;;5075449;28;20205;-80
2022/05/03 03:01:48;;;;;;;8.40;7.80;;;13.00;80.00;;;;;;5102743;28;20187;-82
2022/05/03 03:04:50;;;;;;;8.50;7.90;;;12.90;79.50;;;;;;5097137;28;20191;-81
2022/05/03 03:07:19;;;;;;;8.47;7.80;;;13.00;78.80;;;;;;5093123;28;20225;-81
2022/05/03 03:09:54;;;;;;;9.17;8.47;;;13.00;78.10;;;;;;5096169;28;20651;-80
2022/05/03 03:12:20;;;;;;;8.93;8.17;;;12.90;78.10;;;;;;5100877;28;20178;-81
2022/05/03 03:14:47;;;;;;;8.90;8.10;;;12.90;78.80;;;;;;5096532;28;20179;-81
2022/05/03 03:17:20;;;;;;;9.60;8.90;;;12.90;77.90;;;;;;5099734;28;20235;-81
2022/05/03 03:20:09;;;;;;;9.17;8.47;;;12.70;80.20;;;;;;5082471;28;20195;-81
2022/05/03 03:22:41;;;;;;;8.50;7.90;;;12.40;80.50;;;;;;5100868;28;20210;-81
2022/05/03 03:25:08;;;;;;;9.10;8.30;;;12.40;81.30;;;;;;5092007;28;20175;-81
2022/05/03 03:27:35;;;;;;;9.10;8.40;;;12.40;81.10;;;;;;5100455;28;20290;-82
2022/05/03 03:30:03;;;;;;;9.07;8.13;;;12.30;81.90;;;;;;5096297;28;20178;-81
2022/05/03 03:32:30;;;;;;;8.43;7.83;;;12.40;82.20;;;;;;5096938;28;20244;-81
2022/05/03 03:34:58;;;;;;;8.90;8.17;;;12.50;81.30;;;;;;5078739;28;20248;-81
2022/05/03 03:37:27;;;;;;;8.30;7.70;;;12.40;80.20;;;;;;5096167;28;20225;-81
2022/05/03 03:39:53;;;;;;;8.50;7.90;;;12.50;79.90;;;;;;5099906;28;20186;-81
2022/05/03 03:42:19;;;;;;;8.90;8.20;;;12.50;79.80;;;;;;5097136;28;20192;-81
2022/05/03 03:44:46;;;;;;;8.20;7.60;;;12.50;80.20;;;;;;5100705;28;20186;-82
2022/05/03 03:47:13;;;;;;;8.77;8.17;;;12.40;79.60;;;;;;5100627;28;20203;-82
2022/05/03 03:49:38;;;;;;;7.90;7.30;;;12.40;79.40;;;;;;5095863;28;20192;-81
2022/05/03 03:52:06;;;;;;;8.73;7.90;;;12.40;79.10;;;;;;5090609;28;20260;-81
2022/05/03 03:54:33;;;;;;;9.13;8.43;;;12.40;79.60;;;;;;5096195;28;20219;-81
2022/05/03 03:57:00;;;;;;;8.50;7.90;;;12.40;79.50;;;;;;5086736;28;20211;-82
2022/05/03 03:59:30;;;;;;;8.00;7.40;;;12.50;79.10;;;;;;5098270;28;20180;-82
2022/05/03 04:02:01;;;;;;;8.37;7.77;;;12.50;79.40;;;;;;5099440;28;20182;-81
2022/05/03 04:04:32;;;;;;;8.17;7.50;;;12.40;79.50;;;;;;5099982;28;20214;-81
2022/05/03 04:06:59;;;;;;;8.43;7.73;;;12.20;80.50;;;;;;5096656;28;20203;-82
2022/05/03 04:09:26;;;;;;;9.03;8.23;;;12.20;80.80;;;;;;5112988;28;20267;-81
2022/05/03 04:11:53;;;;;;;8.33;7.50;;;12.20;81.40;;;;;;5105717;28;20199;-81
2022/05/03 04:14:19;;;;;;;8.90;8.10;;;12.30;81.40;;;;;;5098200;28;20201;-82
2022/05/03 04:16:45;;;;;;;8.60;8.00;;;12.40;81.20;;;;;;5091832;28;20202;-82
2022/05/03 04:19:12;;;;;;;8.93;8.23;;;12.40;81.20;;;;;;5082741;28;20817;-82
2022/05/03 04:21:38;;;;;;;8.50;7.80;;;12.40;80.80;;;;;;5085382;28;20561;-82
2022/05/03 04:24:04;;;;;;;8.80;8.10;;;12.40;81.10;;;;;;5089575;28;20745;-81
2022/05/03 04:26:30;;;;;;;20.50;19.07;;;12.40;81.30;;;;;;5097933;28;20239;-81
2022/05/03 04:29:00;;;;;;;8.40;7.80;;;12.50;81.40;;;;;;5093328;28;20191;-81
2022/05/03 04:31:31;;;;;;;8.90;8.00;;;12.40;81.80;;;;;;5104497;28;20262;-82
2022/05/03 04:33:57;;;;;;;9.70;8.80;;;12.50;81.60;;;;;;5091947;28;20183;-82
2022/05/03 04:36:25;;;;;;;8.43;7.73;;;12.40;82.70;;;;;;5093023;28;20267;-81
2022/05/03 04:38:52;;;;;;;9.30;8.47;;;12.50;83.20;;;;;;5096859;28;20232;-81
2022/05/03 04:41:21;;;;;;;9.43;8.47;;;12.50;83.10;;;;;;5095899;28;20296;-81
2022/05/03 04:43:47;;;;;;;8.47;7.83;;;12.60;82.80;;;;;;5097878;28;20215;-81
2022/05/03 04:46:13;;;;;;;7.67;7.17;;;12.50;83.40;;;;;;5102593;28;20206;-82
2022/05/03 04:48:40;;;;;;;7.83;7.23;;;12.60;82.90;;;;;;5094160;28;20187;-81
2022/05/03 04:51:06;;;;;;;8.57;7.87;;;12.60;82.90;;;;;;5087153;28;20267;-82
2022/05/03 04:53:32;;;;;;;8.77;7.97;;;12.60;82.60;;;;;;5096305;28;20199;-81
2022/05/03 04:55:59;;;;;;;9.43;8.30;;;12.70;82.50;;;;;;5095856;28;20285;-82
2022/05/03 04:58:25;;;;;;;7.90;7.30;;;12.50;82.60;;;;;;5104945;28;20211;-81
2022/05/03 05:00:51;;;;;;;9.27;8.57;;;12.60;82.70;;;;;;5100243;28;20213;-83
2022/05/03 05:03:16;;;;;;;9.30;8.50;;;12.30;83.50;;;;;;5105606;28;20187;-81
2022/05/03 05:05:42;;;;;;;9.30;8.60;;;12.00;85.90;;;;;;5078739;28;20198;-81
2022/05/03 05:08:08;;;;;;;9.43;8.60;;;12.00;88.30;;;;;;5105029;28;20240;-82
2022/05/03 05:10:34;;;;;;;10.27;9.30;;;11.90;88.90;;;;;;5109605;28;20193;-81
2022/05/03 05:13:01;;;;;;;9.20;8.37;;;11.90;89.70;;;;;;5107266;28;20201;-81
2022/05/03 05:15:28;;;;;;;11.23;8.60;;;11.90;91.70;;;;;;5092907;28;20245;-80
2022/05/03 05:17:56;;;;;;;9.33;8.27;;;12.00;91.20;;;;;;5097399;28;20644;-81
2022/05/03 05:20:22;;;;;;;9.20;8.30;;;12.10;90.90;;;;;;5106525;28;20186;-81
2022/05/03 05:22:48;;;;;;;9.10;8.30;;;12.20;90.00;;;;;;5088728;28;20191;-81
2022/05/03 05:25:14;;;;;;;9.93;9.07;;;12.40;89.10;;;;;;5107623;28;20185;-81
2022/05/03 05:27:40;;;;;;;9.97;8.97;;;12.40;88.60;;;;;;5107282;28;20211;-81
2022/05/03 05:30:07;;;;;;;10.17;8.30;;;12.50;88.20;;;;;;5106046;28;20191;-81
2022/05/03 05:32:34;;;;;;;9.30;8.40;;;12.70;87.70;;;;;;5105530;28;20736;-82
2022/05/03 05:34:59;;;;;;;9.57;8.77;;;12.80;87.00;;;;;;5107037;28;20178;-81
2022/05/03 05:37:25;;;;;;;9.83;8.70;;;12.90;86.50;;;;;;5085232;28;20215;-80
2022/05/03 05:39:51;;;;;;;10.53;9.53;;;12.80;86.90;;;;;;5087494;28;20248;-81
2022/05/03 05:42:17;;;;;;;10.90;10.00;;;12.80;87.00;;;;;;5090819;28;20232;-81
2022/05/03 05:44:42;;;;;;;10.60;9.60;;;12.90;87.70;;;;;;5107295;28;20191;-81
2022/05/03 05:47:08;;;;;;;9.83;9.03;;;12.90;88.10;;;;;;5089443;28;20207;-81
2022/05/03 05:49:34;;;;;;;10.57;9.27;;;13.00;88.40;;;;;;5072282;28;20539;-81
2022/05/03 05:54:44;;;;;;;12.30;9.53;;;13.10;88.50;;;;;;5105392;28;20253;-82
2022/05/03 05:57:10;;;;;;;12.20;11.17;;;13.10;88.40;;;;;;5105509;28;20289;-81
2022/05/03 05:59:35;;;;;;;10.23;9.37;;;13.10;89.40;;;;;;5086834;28;20218;-81
2022/05/03 06:02:01;;;;;;;11.50;10.60;;;13.10;89.90;;;;;;5105612;28;20203;-81
2022/05/03 06:04:30;;;;;;;10.67;9.80;;;13.00;90.60;;;;;;5104697;28;20675;-81
2022/05/03 06:06:56;;;;;;;12.20;11.20;;;13.10;90.90;;;;;;5100966;28;20596;-81
2022/05/03 06:09:22;;;;;;;10.93;10.13;;;13.20;90.30;;;;;;5104694;28;20181;-81
2022/05/03 06:11:48;;;;;;;10.77;9.87;;;13.30;90.30;;;;;;5105224;28;20247;-81
2022/05/03 06:14:14;;;;;;;12.67;11.47;;;13.30;90.00;;;;;;5106142;28;20223;-81
2022/05/03 06:16:54;;;;;;;11.40;10.47;;;13.40;91.20;;;;;;5106829;28;20207;-81
2022/05/03 06:19:20;;;;;;;12.27;11.27;;;13.40;90.80;;;;;;5106111;28;20210;-81
2022/05/03 06:21:47;;;;;;;11.73;10.83;;;13.60;90.30;;;;;;5086333;28;20187;-81
2022/05/03 06:24:13;;;;;;;13.60;12.50;;;13.80;90.00;;;;;;5105955;28;20178;-81
2022/05/03 06:26:39;;;;;;;14.00;12.80;;;13.70;91.30;;;;;;5105301;28;20210;-81
2022/05/03 06:29:06;;;;;;;15.03;13.53;;;13.60;93.10;;;;;;5087008;28;20254;-81
2022/05/03 06:31:36;;;;;;;13.63;12.43;;;13.60;93.80;;;;;;5088258;28;20249;-81
2022/05/03 06:34:03;;;;;;;13.73;12.43;;;13.60;94.20;;;;;;5086360;28;20180;-81
2022/05/03 06:36:29;;;;;;;13.90;12.67;;;13.70;94.30;;;;;;5105807;28;20703;-81
2022/05/03 06:38:54;;;;;;;13.47;12.37;;;13.80;94.10;;;;;;5106071;28;20268;-81
2022/05/03 06:41:20;;;;;;;13.40;12.23;;;13.80;94.50;;;;;;5104670;28;20180;-80
2022/05/03 06:43:46;;;;;;;14.53;13.23;;;13.90;93.40;;;;;;5103642;28;20179;-81
2022/05/03 06:46:12;;;;;;;13.30;12.17;;;13.90;93.80;;;;;;5102160;28;20260;-82
2022/05/03 06:48:38;;;;;;;13.63;12.43;;;14.00;93.40;;;;;;5105393;28;20202;-84
2022/05/03 06:51:05;;;;;;;12.57;11.57;;;14.00;92.20;;;;;;5084043;28;20184;-83
2022/05/03 06:53:31;;;;;;;12.70;11.70;;;14.10;92.30;;;;;;5086585;28;20186;-83
2022/05/03 06:55:57;;;;;;;13.87;12.63;;;14.20;91.30;;;;;;5090932;28;20237;-84
2022/05/03 06:58:23;;;;;;;13.13;12.00;;;14.10;90.90;;;;;;5080656;28;20572;-84
2022/05/03 07:00:49;;;;;;;12.77;11.67;;;14.20;89.20;;;;;;5103243;28;20212;-83
2022/05/03 07:03:16;;;;;;;14.07;12.73;;;14.30;88.90;;;;;;5086820;28;20189;-83
2022/05/03 07:05:43;;;;;;;13.30;12.17;;;14.30;89.50;;;;;;5105239;28;20179;-83
2022/05/03 07:08:10;;;;;;;14.17;12.87;;;14.30;89.50;;;;;;5070103;28;20268;-82
2022/05/03 07:10:37;;;;;;;14.67;13.43;;;14.40;88.20;;;;;;5101036;28;20230;-83
2022/05/03 07:13:03;;;;;;;13.23;12.03;;;14.50;88.10;;;;;;5104039;28;20199;-82
2022/05/03 07:15:30;;;;;;;13.93;12.73;;;14.60;88.40;;;;;;5100189;28;20183;-83
2022/05/03 07:23:45;;;;;;;14.50;13.23;;;14.70;85.30;;;;;;5024398;28;20240;-83
2022/05/03 07:26:11;;;;;;;14.53;13.33;;;14.80;86.00;;;;;;5034677;28;20186;-83
2022/05/03 07:28:38;;;;;;;13.17;12.03;;;15.00;84.80;;;;;;5042327;28;20742;-82
2022/05/03 07:31:04;;;;;;;14.50;13.03;;;15.10;85.00;;;;;;5100096;28;20194;-84
2022/05/03 07:33:29;;;;;;;15.80;14.40;;;15.00;85.40;;;;;;5101580;28;20187;-83
2022/05/03 07:35:55;;;;;;;14.87;13.67;;;15.00;85.50;;;;;;5101622;28;20183;-83
2022/05/03 07:38:21;;;;;;;15.20;13.87;;;15.00;85.90;;;;;;5098072;28;20556;-83
2022/05/03 07:40:47;;;;;;;15.43;13.97;;;15.10;85.20;;;;;;5098745;28;20598;-84
2022/05/03 07:43:12;;;;;;;15.17;13.97;;;15.20;86.50;;;;;;5098697;28;20199;-83
2022/05/03 07:45:38;;;;;;;13.90;12.60;;;15.40;82.90;;;;;;5097690;28;20235;-83
2022/05/03 07:48:05;;;;;;;15.47;13.87;;;15.40;82.70;;;;;;5094991;28;20244;-84
2022/05/03 07:50:31;;;;;;;15.67;14.37;;;15.60;82.50;;;;;;5097238;28;20218;-84
2022/05/03 07:52:57;;;;;;;15.00;13.67;;;15.70;79.20;;;;;;5098657;28;20190;-84
2022/05/03 07:55:23;;;;;;;14.40;13.17;;;15.80;79.40;;;;;;5090290;28;20258;-84
2022/05/03 07:57:48;;;;;;;15.10;13.90;;;15.80;79.50;;;;;;5063975;28;20242;-84
2022/05/03 08:00:15;;;;;;;14.37;13.27;;;15.80;78.90;;;;;;5092685;28;20225;-83
2022/05/03 08:02:40;;;;;;;14.93;13.43;;;15.90;79.90;;;;;;5097124;28;20190;-82
2022/05/03 08:05:08;;;;;;;15.43;14.27;;;16.00;79.30;;;;;;5104276;28;20180;-84
2022/05/03 08:07:35;;;;;;;16.40;14.73;;;16.10;78.50;;;;;;5098951;28;20214;-84
2022/05/03 08:10:01;;;;;;;15.70;14.30;;;16.40;77.60;;;;;;5074273;28;20191;-84
2022/05/03 08:12:27;;;;;;;15.67;14.37;;;16.60;76.70;;;;;;5096483;28;20187;-84
2022/05/03 08:14:53;;;;;;;16.43;14.80;;;16.70;75.60;;;;;;5095674;28;20198;-84
2022/05/03 08:17:19;;;;;;;16.47;15.07;;;17.00;75.00;;;;;;5094932;28;20211;-84
2022/05/03 08:19:45;;;;;;;15.63;14.40;;;16.90;74.50;;;;;;5095501;28;20205;-83
2022/05/03 08:22:11;;;;;;;15.73;14.43;;;17.20;73.80;;;;;;5095897;28;20188;-83
2022/05/03 08:24:37;;;;;;;17.40;15.50;;;17.10;73.10;;;;;;5093276;28;20186;-84
2022/05/03 08:27:04;;;;;;;15.37;14.10;;;17.30;72.30;;;;;;5091547;28;20207;-83
2022/05/03 08:29:31;;;;;;;15.40;14.00;;;17.30;71.70;;;;;;5093731;28;20185;-85
2022/05/03 08:31:58;;;;;;;15.27;13.93;;;17.40;73.00;;;;;;5073428;28;20191;-84
2022/05/03 08:34:24;;;;;;;15.63;14.23;;;17.50;71.20;;;;;;5089896;28;20196;-84
2022/05/03 08:42:18;;;;;;;14.53;13.33;;;18.20;66.90;;;;;;5092710;28;20214;-84
2022/05/03 08:44:44;;;;;;;14.35;13.25;;;18.40;66.20;;;;;;5093754;28;20185;-84
2022/05/03 08:47:10;;;;;;;14.73;13.63;;;18.40;66.60;;;;;;5090112;28;20217;-84
2022/05/03 08:49:42;;;;;;;14.23;13.00;;;18.40;63.90;;;;;;5096508;28;20200;-84
2022/05/03 08:52:09;;;;;;;13.57;12.52;;;18.60;63.50;;;;;;5097445;28;20177;-85
2022/05/03 08:54:39;;;;;;;12.10;11.10;;;18.80;64.60;;;;;;5078966;28;20201;-84
2022/05/03 08:57:06;;;;;;;14.00;12.85;;;19.00;63.00;;;;;;5096369;28;20680;-84
2022/05/03 08:59:34;;;;;;;12.63;11.73;;;19.00;63.10;;;;;;5095813;28;20208;-84
2022/05/03 09:02:00;;;;;;;13.55;12.45;;;19.10;64.00;;;;;;5096606;28;20174;-84
2022/05/03 09:04:26;;;;;;;13.35;11.95;;;19.30;64.40;;;;;;5094803;28;20236;-83
2022/05/03 09:06:52;;;;;;;13.32;12.15;;;19.50;63.90;;;;;;5095835;28;20217;-84
2022/05/03 09:09:21;;;;;;;12.75;11.73;;;19.60;61.90;;;;;;5079041;28;20187;-84
2022/05/03 09:11:50;;;;;;;13.23;12.32;;;19.70;62.30;;;;;;5091759;28;20186;-85
2022/05/03 09:14:39;;;;;;;12.73;11.48;;;19.90;60.80;;;;;;5078990;28;20281;-84
2022/05/03 09:17:05;;;;;;;12.45;11.35;;;19.90;61.00;;;;;;5107373;28;20202;-83
2022/05/03 09:19:32;;;;;;;11.73;10.82;;;20.10;60.10;;;;;;5113098;28;20267;-83
2022/05/03 09:24:57;;;;;;;11.65;10.75;;;20.40;60.90;;;;;;5109592;28;20181;-82
2022/05/03 09:27:24;;;;;;;11.95;10.88;;;20.20;58.90;;;;;;5097510;28;20214;-85
2022/05/03 09:30:00;;;;;;;10.98;9.93;;;20.10;59.40;;;;;;5098269;28;20703;-84
2022/05/03 09:32:42;;;;;;;10.95;10.15;;;20.30;59.60;;;;;;5105636;28;20213;-82
2022/05/03 09:35:44;;;;;;;10.77;9.98;;;20.70;58.50;;;;;;5107144;28;20163;-82
2022/05/03 09:38:09;;;;;;;11.05;10.02;;;21.00;57.70;;;;;;5047495;28;20220;-83
2022/05/03 09:40:38;;;;;;;10.70;9.98;;;21.00;57.70;;;;;;5090460;28;20218;-81
2022/05/03 09:43:08;;;;;;;11.60;10.70;;;20.70;57.70;;;;;;5097526;28;20183;-82
2022/05/03 09:45:34;;;;;;;11.75;10.75;;;20.50;58.40;;;;;;5106581;28;20202;-83
2022/05/03 09:48:00;;;;;;;11.82;10.93;;;20.30;59.90;;;;;;5109096;28;20260;-83
2022/05/03 09:50:29;;;;;;;11.73;10.75;;;20.40;60.30;;;;;;5087115;28;20554;-82
2022/05/03 09:53:07;;;;;;;11.35;10.35;;;20.40;60.80;;;;;;5083691;28;20186;-82
2022/05/03 09:55:36;;;;;;;11.02;10.05;;;20.10;61.40;;;;;;5087299;28;20206;-84
2022/05/03 09:58:07;;;;;;;10.15;9.45;;;20.40;60.90;;;;;;5086103;28;20199;-82
2022/05/03 10:00:33;;;;;;;10.85;9.85;;;20.80;60.00;;;;;;5086196;28;20181;-83
2022/05/03 10:03:01;;;;;;;10.85;9.95;;;21.10;58.40;;;;;;5086033;28;20210;-84
2022/05/03 10:05:27;;;;;;;10.48;9.45;;;21.30;56.80;;;;;;5089260;28;20172;-83
2022/05/03 10:07:54;;;;;;;10.50;9.50;;;21.30;56.70;;;;;;5085556;28;20225;-83
2022/05/03 10:10:21;;;;;;;9.70;8.75;;;21.40;57.00;;;;;;5084820;28;20195;-83
2022/05/03 10:12:49;;;;;;;10.07;9.32;;;21.60;56.30;;;;;;5081437;28;20204;-84
2022/05/03 10:21:26;;;;;;;8.90;8.20;;;22.20;52.20;;;;;;5089640;28;20669;-85
2022/05/03 10:24:11;;;;;;;10.18;9.18;;;22.30;51.90;;;;;;5082541;28;20210;-84
2022/05/03 10:27:02;;;;;;;9.02;8.40;;;22.50;51.80;;;;;;5094458;28;20658;-83
2022/05/03 10:29:34;;;;;;;8.85;8.15;;;22.50;52.20;;;;;;5082781;28;20240;-83
2022/05/03 10:32:06;;;;;;;7.15;6.63;;;22.80;51.30;;;;;;5083353;28;20239;-84
2022/05/03 10:34:48;;;;;;;7.50;6.90;;;23.10;48.10;;;;;;5084959;28;20190;-84
2022/05/03 10:37:16;;;;;;;7.50;6.85;;;23.20;46.90;;;;;;5081870;28;20676;-83
2022/05/03 10:39:57;;;;;;;7.13;6.50;;;22.90;46.00;;;;;;5086683;28;20558;-83
2022/05/03 10:42:25;;;;;;;6.57;6.05;;;22.80;47.00;;;;;;5096743;28;20174;-82
2022/05/03 10:45:06;;;;;;;5.70;5.30;;;22.70;46.80;;;;;;5081177;28;20341;-84
2022/05/03 10:47:48;;;;;;;7.53;7.03;;;22.90;46.30;;;;;;5086292;28;20224;-83
2022/05/03 10:50:16;;;;;;;7.30;6.47;;;23.00;46.30;;;;;;5066836;28;20658;-83
2022/05/03 10:52:54;;;;;;;7.25;6.55;;;23.40;45.60;;;;;;5090644;28;20237;-83
2022/05/03 10:55:20;;;;;;;6.20;5.65;;;23.70;45.00;;;;;;5079728;28;21002;-83
2022/05/03 10:58:23;;;;;;;6.47;6.07;;;24.00;44.50;;;;;;5067985;28;20208;-84
2022/05/03 11:01:23;;;;;;;7.00;6.00;;;24.20;43.70;;;;;;5085075;28;20642;-82
2022/05/03 11:03:52;;;;;;;6.00;5.50;;;24.10;42.20;;;;;;5081269;28;20175;-82
2022/05/03 11:06:22;;;;;;;6.72;6.15;;;24.00;43.40;;;;;;5085154;28;20582;-83
2022/05/03 11:09:09;;;;;;;5.78;5.38;;;24.20;42.90;;;;;;5081870;28;20179;-83
2022/05/03 11:11:38;;;;;;;5.45;5.05;;;24.50;41.60;;;;;;5093815;28;20183;-83
2022/05/03 11:14:22;;;;;;;5.57;5.13;;;24.80;40.20;;;;;;5086084;28;20187;-82
2022/05/03 11:17:05;;;;;;;5.53;5.13;;;24.70;39.80;;;;;;5090055;28;20619;-85
2022/05/03 11:19:51;;;;;;;5.68;5.28;;;24.40;40.30;;;;;;5088822;28;20185;-84
2022/05/03 11:22:29;;;;;;;5.50;5.00;;;24.30;42.20;;;;;;5085894;28;20262;-84
2022/05/03 11:24:57;;;;;;;5.97;5.53;;;24.30;40.50;;;;;;5089565;28;20243;-84
2022/05/03 11:27:24;;;;;;;5.90;5.40;;;24.30;40.10;;;;;;5087414;28;20214;-84
2022/05/03 11:29:57;;;;;;;4.80;4.50;;;24.50;39.10;;;;;;5085573;28;20190;-84
2022/05/03 11:32:41;;;;;;;4.95;4.60;;;24.50;38.40;;;;;;5082027;28;20183;-84
2022/05/03 11:35:20;;;;;;;5.50;5.10;;;24.90;38.60;;;;;;5075311;28;20549;-84
2022/05/03 11:37:56;;;;;;;5.30;4.90;;;25.50;37.50;;;;;;5088649;28;20213;-84
2022/05/03 11:40:26;;;;;;;5.05;4.65;;;25.80;36.90;;;;;;5089057;28;20183;-83
2022/05/03 11:42:52;;;;;;;4.97;4.68;;;26.20;35.40;;;;;;5081822;28;20278;-83
2022/05/03 11:45:18;;;;;;;5.13;4.72;;;26.50;35.10;;;;;;5065522;28;20209;-83
2022/05/03 11:47:47;;;;;;;5.07;4.78;;;26.50;33.90;;;;;;5085072;28;20211;-84
2022/05/03 11:55:58;;;;;;;5.38;4.97;;;26.30;34.20;;;;;;5081679;28;20266;-84
2022/05/03 11:56:00;;;;;;;4.88;4.45;;;26.60;34.60;;;;;;5087102;28;20263;-84
2022/05/03 11:58:28;;;;;;;5.32;4.75;;;26.50;32.60;;;;;;5088999;28;20214;-84
2022/05/03 12:00:53;;;;;;;6.95;4.53;;;26.40;33.20;;;;;;5080815;28;20195;-84
2022/05/03 12:03:19;;;;;;;5.15;4.75;;;26.50;32.90;;;;;;5081690;28;20278;-84
2022/05/03 12:06:02;;;;;;;5.50;4.70;;;26.00;34.00;;;;;;5084645;28;20179;-84
2022/05/03 12:08:30;;;;;;;4.75;4.32;;;26.30;32.10;;;;;;5076216;28;20200;-83
2022/05/03 12:10:56;;;;;;;4.20;3.90;;;26.10;30.90;;;;;;5069668;28;20569;-83
2022/05/03 12:13:22;;;;;;;4.82;4.30;;;26.60;30.90;;;;;;5085274;28;20187;-84
2022/05/03 12:15:57;;;;;;;4.45;4.15;;;27.20;30.60;;;;;;5085701;28;20187;-84
2022/05/03 12:18:32;;;;;;;4.70;4.30;;;27.50;29.90;;;;;;5091242;28;20617;-83
2022/05/03 12:21:01;;;;;;;4.93;4.30;;;27.80;30.40;;;;;;5089842;28;20545;-84
2022/05/03 12:23:37;;;;;;;4.75;4.45;;;27.70;30.70;;;;;;5087824;28;20210;-84
2022/05/03 12:26:12;;;;;;;4.75;4.45;;;27.80;30.60;;;;;;5080043;28;20254;-84
2022/05/03 12:28:48;;;;;;;4.70;4.40;;;27.80;29.80;;;;;;5083312;28;20269;-83
2022/05/03 12:31:16;;;;;;;5.10;4.70;;;27.70;29.90;;;;;;5083124;28;20187;-84
2022/05/03 12:33:46;;;;;;;5.68;4.38;;;28.20;30.10;;;;;;5096551;28;20182;-84
2022/05/03 12:36:36;;;;;;;7.43;5.95;;;28.50;29.80;;;;;;5102582;28;20183;-84
2022/05/03 12:39:17;;;;;;;6.03;5.53;;;28.50;33.10;;;;;;5080149;28;20198;-84
2022/05/03 12:41:44;;;;;;;5.72;5.22;;;27.70;33.90;;;;;;5082311;28;20577;-84
2022/05/03 12:44:14;;;;;;;5.72;5.30;;;26.90;35.60;;;;;;5084971;28;20182;-84
2022/05/03 12:46:41;;;;;;;5.47;5.07;;;26.10;36.00;;;;;;5079992;28;20210;-85
2022/05/03 12:49:16;;;;;;;5.45;5.05;;;25.90;36.90;;;;;;5081373;28;20262;-84
2022/05/03 12:51:44;;;;;;;5.38;4.97;;;25.90;35.80;;;;;;5081273;28;20549;-84
2022/05/03 12:54:10;;;;;;;5.90;4.93;;;26.00;36.20;;;;;;5083808;28;20196;-84
2022/05/03 12:59:22;;;;;;;5.00;4.70;;;25.70;35.20;;;;;;5065346;28;20651;-84
2022/05/03 13:01:50;;;;;;;5.78;5.28;;;25.60;34.30;;;;;;5083604;28;20737;-84
2022/05/03 13:04:17;;;;;;;5.78;5.38;;;25.60;36.60;;;;;;5085483;28;20336;-84
2022/05/03 13:06:44;;;;;;;6.07;5.47;;;26.30;35.30;;;;;;5085056;28;20226;-84
2022/05/03 13:09:10;;;;;;;5.85;5.40;;;26.90;33.90;;;;;;5086178;28;20198;-84
2022/05/03 13:11:38;;;;;;;6.53;5.70;;;27.70;34.10;;;;;;5079200;28;20187;-84
2022/05/03 13:14:05;;;;;;;6.22;5.72;;;28.20;32.90;;;;;;5083853;28;20184;-84
2022/05/03 13:16:31;;;;;;;7.55;6.93;;;28.70;32.10;;;;;;5077145;28;20222;-86
2022/05/03 13:18:56;;;;;;;7.50;6.85;;;28.30;33.50;;;;;;5080024;28;20203;-85
2022/05/03 13:21:23;;;;;;;7.95;7.38;;;27.80;34.60;;;;;;5082286;28;20271;-85
2022/05/03 13:23:49;;;;;;;7.70;6.95;;;27.10;35.90;;;;;;5081857;28;20178;-85
2022/05/03 13:26:15;;;;;;;6.97;6.28;;;26.50;36.20;;;;;;5084478;28;20185;-84
2022/05/03 13:28:41;;;;;;;7.35;6.85;;;26.10;36.70;;;;;;5082128;28;20194;-85
2022/05/03 13:31:07;;;;;;;9.32;8.63;;;25.50;37.30;;;;;;5092773;28;20236;-85
2022/05/03 13:33:32;;;;;;;7.97;7.20;;;25.10;39.00;;;;;;5070292;28;20260;-84